sensor_id;sensor_type;location;lat;lon;timestamp;P1;durP1;ratioP1;P2;durP2;ratioP2
62574;SDS011;53112;45.602;11.904;2023-04-30T00:00:26;4.13;;;2.58;;
62574;SDS011;53112;45.602;11.904;2023-04-30T00:02:52;2.92;;;2.40;;
62574;SDS011;53112;45.602;11.904;2023-04-30T00:05:18;3.42;;;2.50;;
62574;SDS011;53112;45.602;11.904;2023-04-30T00:07:44;3.60;;;2.60;;
62574;SDS011;53112;45.602;11.904;2023-04-30T00:10:10;3.75;;;2.90;;
62574;SDS011;53112;45.602;11.904;2023-04-30T00:12:36;4.10;;;2.70;;
62574;SDS011;53112;45.602;11.904;2023-04-30T00:15:02;4.53;;;3.00;;
62574;SDS011;53112;45.602;11.904;2023-04-30T00:17:29;5.75;;;2.63;;
62574;SDS011;53112;45.602;11.904;2023-04-30T00:19:54;3.65;;;2.67;;
62574;SDS011;53112;45.602;11.904;2023-04-30T00:22:20;2.97;;;2.33;;
62574;SDS011;53112;45.602;11.904;2023-04-30T00:24:46;4.40;;;2.80;;
62574;SDS011;53112;45.602;11.904;2023-04-30T00:27:12;4.50;;;2.95;;
62574;SDS011;53112;45.602;11.904;2023-04-30T00:29:38;4.72;;;2.85;;
62574;SDS011;53112;45.602;11.904;2023-04-30T00:32:05;4.55;;;2.90;;
62574;SDS011;53112;45.602;11.904;2023-04-30T00:34:31;5.38;;;2.88;;
62574;SDS011;53112;45.602;11.904;2023-04-30T00:36:57;3.58;;;2.63;;
62574;SDS011;53112;45.602;11.904;2023-04-30T00:39:23;3.60;;;2.53;;
62574;SDS011;53112;45.602;11.904;2023-04-30T00:41:48;4.10;;;2.88;;
62574;SDS011;53112;45.602;11.904;2023-04-30T00:44:14;3.92;;;2.80;;
62574;SDS011;53112;45.602;11.904;2023-04-30T00:46:40;3.75;;;2.70;;
62574;SDS011;53112;45.602;11.904;2023-04-30T00:49:06;4.68;;;2.70;;
62574;SDS011;53112;45.602;11.904;2023-04-30T00:51:32;3.53;;;2.70;;
62574;SDS011;53112;45.602;11.904;2023-04-30T00:54:00;6.22;;;2.90;;
62574;SDS011;53112;45.602;11.904;2023-04-30T00:56:28;4.53;;;3.08;;
62574;SDS011;53112;45.602;11.904;2023-04-30T00:58:57;4.25;;;2.45;;
62574;SDS011;53112;45.602;11.904;2023-04-30T01:01:23;3.58;;;2.70;;
62574;SDS011;53112;45.602;11.904;2023-04-30T01:03:56;3.35;;;2.70;;
62574;SDS011;53112;45.602;11.904;2023-04-30T01:06:22;4.22;;;2.67;;
62574;SDS011;53112;45.602;11.904;2023-04-30T01:08:50;4.05;;;2.90;;
62574;SDS011;53112;45.602;11.904;2023-04-30T01:11:20;3.25;;;2.72;;
62574;SDS011;53112;45.602;11.904;2023-04-30T01:17:27;4.38;;;2.80;;
62574;SDS011;53112;45.602;11.904;2023-04-30T01:22:09;3.90;;;2.97;;
62574;SDS011;53112;45.602;11.904;2023-04-30T01:27:28;4.15;;;2.80;;
62574;SDS011;53112;45.602;11.904;2023-04-30T01:30:00;3.97;;;2.95;;
62574;SDS011;53112;45.602;11.904;2023-04-30T01:32:27;3.92;;;3.05;;
62574;SDS011;53112;45.602;11.904;2023-04-30T01:34:53;4.60;;;3.55;;
62574;SDS011;53112;45.602;11.904;2023-04-30T01:45:19;5.15;;;3.10;;
62574;SDS011;53112;45.602;11.904;2023-04-30T01:51:13;3.97;;;2.92;;
62574;SDS011;53112;45.602;11.904;2023-04-30T01:54:02;4.57;;;3.00;;
62574;SDS011;53112;45.602;11.904;2023-04-30T01:56:38;4.28;;;2.80;;
62574;SDS011;53112;45.602;11.904;2023-04-30T01:59:08;4.68;;;2.95;;
62574;SDS011;53112;45.602;11.904;2023-04-30T02:01:35;5.45;;;3.28;;
62574;SDS011;53112;45.602;11.904;2023-04-30T02:04:01;4.45;;;2.83;;
62574;SDS011;53112;45.602;11.904;2023-04-30T02:06:28;5.22;;;2.90;;
62574;SDS011;53112;45.602;11.904;2023-04-30T02:08:55;4.03;;;2.80;;
62574;SDS011;53112;45.602;11.904;2023-04-30T02:11:32;3.90;;;2.78;;
62574;SDS011;53112;45.602;11.904;2023-04-30T02:13:58;4.35;;;3.00;;
62574;SDS011;53112;45.602;11.904;2023-04-30T02:16:24;4.63;;;3.00;;
62574;SDS011;53112;45.602;11.904;2023-04-30T02:18:50;3.67;;;2.70;;
62574;SDS011;53112;45.602;11.904;2023-04-30T02:21:16;4.90;;;2.83;;
62574;SDS011;53112;45.602;11.904;2023-04-30T02:23:42;4.07;;;2.80;;
62574;SDS011;53112;45.602;11.904;2023-04-30T02:26:08;3.67;;;2.75;;
62574;SDS011;53112;45.602;11.904;2023-04-30T02:28:34;4.38;;;2.85;;
62574;SDS011;53112;45.602;11.904;2023-04-30T02:31:00;6.47;;;2.90;;
62574;SDS011;53112;45.602;11.904;2023-04-30T02:33:26;3.20;;;2.50;;
62574;SDS011;53112;45.602;11.904;2023-04-30T02:35:52;3.90;;;2.80;;
62574;SDS011;53112;45.602;11.904;2023-04-30T02:38:19;2.83;;;2.53;;
62574;SDS011;53112;45.602;11.904;2023-04-30T02:40:45;3.97;;;2.65;;
62574;SDS011;53112;45.602;11.904;2023-04-30T02:43:11;3.70;;;2.90;;
62574;SDS011;53112;45.602;11.904;2023-04-30T02:45:37;3.45;;;2.65;;
62574;SDS011;53112;45.602;11.904;2023-04-30T02:48:03;4.70;;;2.97;;
62574;SDS011;53112;45.602;11.904;2023-04-30T02:50:30;4.15;;;3.22;;
62574;SDS011;53112;45.602;11.904;2023-04-30T02:52:55;6.28;;;3.40;;
62574;SDS011;53112;45.602;11.904;2023-04-30T02:55:21;4.25;;;3.20;;
62574;SDS011;53112;45.602;11.904;2023-04-30T02:57:47;5.05;;;3.17;;
62574;SDS011;53112;45.602;11.904;2023-04-30T03:00:13;4.13;;;3.15;;
62574;SDS011;53112;45.602;11.904;2023-04-30T03:02:39;3.88;;;2.88;;
62574;SDS011;53112;45.602;11.904;2023-04-30T03:05:06;4.07;;;3.10;;
62574;SDS011;53112;45.602;11.904;2023-04-30T03:07:32;4.93;;;3.03;;
62574;SDS011;53112;45.602;11.904;2023-04-30T03:09:58;5.22;;;3.15;;
62574;SDS011;53112;45.602;11.904;2023-04-30T03:12:24;3.63;;;2.60;;
62574;SDS011;53112;45.602;11.904;2023-04-30T03:14:50;3.67;;;2.80;;
62574;SDS011;53112;45.602;11.904;2023-04-30T03:17:16;4.20;;;2.90;;
62574;SDS011;53112;45.602;11.904;2023-04-30T03:19:42;3.80;;;2.92;;
62574;SDS011;53112;45.602;11.904;2023-04-30T03:22:09;4.22;;;2.80;;
62574;SDS011;53112;45.602;11.904;2023-04-30T03:24:35;4.95;;;2.90;;
62574;SDS011;53112;45.602;11.904;2023-04-30T03:27:01;4.20;;;3.00;;
62574;SDS011;53112;45.602;11.904;2023-04-30T03:29:27;4.78;;;3.03;;
62574;SDS011;53112;45.602;11.904;2023-04-30T03:31:53;5.15;;;3.20;;
62574;SDS011;53112;45.602;11.904;2023-04-30T03:34:19;4.05;;;2.83;;
62574;SDS011;53112;45.602;11.904;2023-04-30T03:36:45;4.20;;;2.97;;
62574;SDS011;53112;45.602;11.904;2023-04-30T03:39:11;3.90;;;3.20;;
62574;SDS011;53112;45.602;11.904;2023-04-30T03:41:37;4.30;;;3.20;;
62574;SDS011;53112;45.602;11.904;2023-04-30T03:44:03;4.03;;;2.90;;
62574;SDS011;53112;45.602;11.904;2023-04-30T03:46:29;4.85;;;3.08;;
62574;SDS011;53112;45.602;11.904;2023-04-30T03:48:55;4.40;;;3.10;;
62574;SDS011;53112;45.602;11.904;2023-04-30T03:51:21;4.65;;;3.17;;
62574;SDS011;53112;45.602;11.904;2023-04-30T03:53:47;3.55;;;2.90;;
62574;SDS011;53112;45.602;11.904;2023-04-30T03:56:13;4.13;;;2.90;;
62574;SDS011;53112;45.602;11.904;2023-04-30T03:58:39;4.13;;;3.10;;
62574;SDS011;53112;45.602;11.904;2023-04-30T04:01:05;4.13;;;3.33;;
62574;SDS011;53112;45.602;11.904;2023-04-30T04:03:33;4.18;;;3.15;;
62574;SDS011;53112;45.602;11.904;2023-04-30T04:05:59;4.25;;;2.92;;
62574;SDS011;53112;45.602;11.904;2023-04-30T04:08:25;3.75;;;2.92;;
62574;SDS011;53112;45.602;11.904;2023-04-30T04:10:51;4.38;;;3.03;;
62574;SDS011;53112;45.602;11.904;2023-04-30T04:13:17;6.22;;;3.38;;
62574;SDS011;53112;45.602;11.904;2023-04-30T04:15:43;5.10;;;3.35;;
62574;SDS011;53112;45.602;11.904;2023-04-30T04:18:09;4.68;;;3.30;;
62574;SDS011;53112;45.602;11.904;2023-04-30T04:20:35;5.10;;;3.58;;
62574;SDS011;53112;45.602;11.904;2023-04-30T04:23:01;5.20;;;3.40;;
62574;SDS011;53112;45.602;11.904;2023-04-30T04:25:27;4.68;;;3.45;;
62574;SDS011;53112;45.602;11.904;2023-04-30T04:27:53;5.28;;;3.50;;
62574;SDS011;53112;45.602;11.904;2023-04-30T04:30:19;4.93;;;3.30;;
62574;SDS011;53112;45.602;11.904;2023-04-30T04:32:45;5.65;;;3.40;;
62574;SDS011;53112;45.602;11.904;2023-04-30T04:35:13;4.80;;;3.22;;
62574;SDS011;53112;45.602;11.904;2023-04-30T04:37:39;4.00;;;3.10;;
62574;SDS011;53112;45.602;11.904;2023-04-30T04:40:06;5.38;;;3.45;;
62574;SDS011;53112;45.602;11.904;2023-04-30T04:42:33;4.93;;;3.45;;
62574;SDS011;53112;45.602;11.904;2023-04-30T04:44:59;5.28;;;3.30;;
62574;SDS011;53112;45.602;11.904;2023-04-30T04:47:25;3.50;;;3.00;;
62574;SDS011;53112;45.602;11.904;2023-04-30T04:49:51;5.03;;;3.10;;
62574;SDS011;53112;45.602;11.904;2023-04-30T04:52:17;4.35;;;3.00;;
62574;SDS011;53112;45.602;11.904;2023-04-30T04:54:43;3.92;;;3.00;;
62574;SDS011;53112;45.602;11.904;2023-04-30T04:57:09;3.50;;;3.00;;
62574;SDS011;53112;45.602;11.904;2023-04-30T04:59:35;5.47;;;3.20;;
62574;SDS011;53112;45.602;11.904;2023-04-30T05:02:01;4.82;;;3.42;;
62574;SDS011;53112;45.602;11.904;2023-04-30T05:04:27;4.22;;;3.30;;
62574;SDS011;53112;45.602;11.904;2023-04-30T05:06:54;3.28;;;2.97;;
62574;SDS011;53112;45.602;11.904;2023-04-30T05:09:20;3.92;;;3.10;;
62574;SDS011;53112;45.602;11.904;2023-04-30T05:11:46;3.80;;;3.00;;
62574;SDS011;53112;45.602;11.904;2023-04-30T05:14:13;4.93;;;2.85;;
62574;SDS011;53112;45.602;11.904;2023-04-30T05:16:39;5.50;;;3.10;;
62574;SDS011;53112;45.602;11.904;2023-04-30T05:19:05;3.83;;;3.03;;
62574;SDS011;53112;45.602;11.904;2023-04-30T05:21:34;4.88;;;3.20;;
62574;SDS011;53112;45.602;11.904;2023-04-30T05:24:00;4.10;;;2.97;;
62574;SDS011;53112;45.602;11.904;2023-04-30T05:26:26;5.25;;;3.20;;
62574;SDS011;53112;45.602;11.904;2023-04-30T05:28:52;3.83;;;2.80;;
62574;SDS011;53112;45.602;11.904;2023-04-30T05:31:18;4.25;;;3.05;;
62574;SDS011;53112;45.602;11.904;2023-04-30T05:33:44;4.05;;;2.90;;
62574;SDS011;53112;45.602;11.904;2023-04-30T05:36:10;3.22;;;2.67;;
62574;SDS011;53112;45.602;11.904;2023-04-30T05:38:36;3.75;;;2.75;;
62574;SDS011;53112;45.602;11.904;2023-04-30T05:41:02;3.78;;;2.75;;
62574;SDS011;53112;45.602;11.904;2023-04-30T05:43:28;3.58;;;2.80;;
62574;SDS011;53112;45.602;11.904;2023-04-30T05:45:54;3.55;;;2.55;;
62574;SDS011;53112;45.602;11.904;2023-04-30T05:48:19;4.32;;;2.70;;
62574;SDS011;53112;45.602;11.904;2023-04-30T05:50:45;3.50;;;2.70;;
62574;SDS011;53112;45.602;11.904;2023-04-30T05:53:12;3.97;;;2.83;;
62574;SDS011;53112;45.602;11.904;2023-04-30T05:55:38;3.50;;;2.85;;
62574;SDS011;53112;45.602;11.904;2023-04-30T05:58:04;3.60;;;2.83;;
62574;SDS011;53112;45.602;11.904;2023-04-30T06:00:30;5.20;;;2.72;;
62574;SDS011;53112;45.602;11.904;2023-04-30T06:02:56;3.75;;;2.80;;
62574;SDS011;53112;45.602;11.904;2023-04-30T06:05:22;5.70;;;3.22;;
62574;SDS011;53112;45.602;11.904;2023-04-30T06:07:48;3.67;;;2.70;;
62574;SDS011;53112;45.602;11.904;2023-04-30T06:10:14;3.53;;;2.80;;
62574;SDS011;53112;45.602;11.904;2023-04-30T06:12:43;3.78;;;2.80;;
62574;SDS011;53112;45.602;11.904;2023-04-30T06:15:09;4.07;;;3.00;;
62574;SDS011;53112;45.602;11.904;2023-04-30T06:17:35;5.18;;;3.10;;
62574;SDS011;53112;45.602;11.904;2023-04-30T06:20:01;3.72;;;2.83;;
62574;SDS011;53112;45.602;11.904;2023-04-30T06:22:31;4.47;;;3.00;;
62574;SDS011;53112;45.602;11.904;2023-04-30T06:24:57;3.92;;;3.00;;
62574;SDS011;53112;45.602;11.904;2023-04-30T06:27:24;4.18;;;2.95;;
62574;SDS011;53112;45.602;11.904;2023-04-30T06:29:52;4.65;;;3.00;;
62574;SDS011;53112;45.602;11.904;2023-04-30T06:32:18;3.83;;;2.97;;
62574;SDS011;53112;45.602;11.904;2023-04-30T06:34:44;4.63;;;3.08;;
62574;SDS011;53112;45.602;11.904;2023-04-30T06:37:10;4.80;;;2.72;;
62574;SDS011;53112;45.602;11.904;2023-04-30T06:39:36;3.67;;;2.90;;
62574;SDS011;53112;45.602;11.904;2023-04-30T06:42:02;4.70;;;2.90;;
62574;SDS011;53112;45.602;11.904;2023-04-30T06:44:28;3.72;;;2.90;;
62574;SDS011;53112;45.602;11.904;2023-04-30T06:46:55;4.18;;;2.92;;
62574;SDS011;53112;45.602;11.904;2023-04-30T06:49:21;4.03;;;2.90;;
62574;SDS011;53112;45.602;11.904;2023-04-30T06:51:46;3.60;;;2.70;;
62574;SDS011;53112;45.602;11.904;2023-04-30T06:54:12;4.20;;;2.88;;
62574;SDS011;53112;45.602;11.904;2023-04-30T06:56:38;3.72;;;3.10;;
62574;SDS011;53112;45.602;11.904;2023-04-30T06:59:04;3.97;;;3.00;;
62574;SDS011;53112;45.602;11.904;2023-04-30T07:01:30;4.93;;;2.90;;
62574;SDS011;53112;45.602;11.904;2023-04-30T07:03:57;4.10;;;3.00;;
62574;SDS011;53112;45.602;11.904;2023-04-30T07:06:24;3.17;;;2.78;;
62574;SDS011;53112;45.602;11.904;2023-04-30T07:08:50;3.70;;;3.00;;
62574;SDS011;53112;45.602;11.904;2023-04-30T07:11:16;3.40;;;2.92;;
62574;SDS011;53112;45.602;11.904;2023-04-30T07:13:42;3.97;;;2.85;;
62574;SDS011;53112;45.602;11.904;2023-04-30T07:16:08;3.35;;;2.78;;
62574;SDS011;53112;45.602;11.904;2023-04-30T07:18:35;3.33;;;2.70;;
62574;SDS011;53112;45.602;11.904;2023-04-30T07:21:02;4.65;;;2.80;;
62574;SDS011;53112;45.602;11.904;2023-04-30T07:23:28;3.85;;;2.83;;
62574;SDS011;53112;45.602;11.904;2023-04-30T07:25:54;3.50;;;2.70;;
62574;SDS011;53112;45.602;11.904;2023-04-30T07:28:20;4.32;;;2.72;;
62574;SDS011;53112;45.602;11.904;2023-04-30T07:30:46;4.43;;;2.90;;
62574;SDS011;53112;45.602;11.904;2023-04-30T07:33:12;3.75;;;2.80;;
62574;SDS011;53112;45.602;11.904;2023-04-30T07:35:37;4.38;;;2.88;;
62574;SDS011;53112;45.602;11.904;2023-04-30T07:38:03;3.83;;;2.85;;
62574;SDS011;53112;45.602;11.904;2023-04-30T07:40:30;3.83;;;2.95;;
62574;SDS011;53112;45.602;11.904;2023-04-30T07:42:55;5.15;;;2.78;;
62574;SDS011;53112;45.602;11.904;2023-04-30T07:45:21;4.95;;;2.88;;
62574;SDS011;53112;45.602;11.904;2023-04-30T07:47:47;3.85;;;2.80;;
62574;SDS011;53112;45.602;11.904;2023-04-30T07:50:13;3.70;;;3.00;;
62574;SDS011;53112;45.602;11.904;2023-04-30T07:52:40;3.33;;;2.65;;
62574;SDS011;53112;45.602;11.904;2023-04-30T07:55:06;3.47;;;2.60;;
62574;SDS011;53112;45.602;11.904;2023-04-30T07:57:32;3.78;;;2.78;;
62574;SDS011;53112;45.602;11.904;2023-04-30T07:59:58;4.32;;;2.95;;
62574;SDS011;53112;45.602;11.904;2023-04-30T08:02:24;4.72;;;2.80;;
62574;SDS011;53112;45.602;11.904;2023-04-30T08:04:50;10.93;;;3.15;;
62574;SDS011;53112;45.602;11.904;2023-04-30T08:07:16;5.35;;;3.20;;
62574;SDS011;53112;45.602;11.904;2023-04-30T08:09:42;4.85;;;2.92;;
62574;SDS011;53112;45.602;11.904;2023-04-30T08:12:08;3.78;;;2.72;;
62574;SDS011;53112;45.602;11.904;2023-04-30T08:14:34;5.68;;;2.92;;
62574;SDS011;53112;45.602;11.904;2023-04-30T08:17:00;5.78;;;2.97;;
62574;SDS011;53112;45.602;11.904;2023-04-30T08:19:27;4.72;;;3.00;;
62574;SDS011;53112;45.602;11.904;2023-04-30T08:21:53;5.13;;;2.80;;
62574;SDS011;53112;45.602;11.904;2023-04-30T08:24:19;13.15;;;3.10;;
62574;SDS011;53112;45.602;11.904;2023-04-30T08:26:45;3.65;;;2.88;;
62574;SDS011;53112;45.602;11.904;2023-04-30T08:29:11;3.20;;;2.75;;
62574;SDS011;53112;45.602;11.904;2023-04-30T08:31:37;6.65;;;3.28;;
62574;SDS011;53112;45.602;11.904;2023-04-30T08:34:03;3.65;;;2.72;;
62574;SDS011;53112;45.602;11.904;2023-04-30T08:36:29;3.83;;;2.90;;
62574;SDS011;53112;45.602;11.904;2023-04-30T08:38:55;3.60;;;2.80;;
62574;SDS011;53112;45.602;11.904;2023-04-30T08:41:24;4.47;;;3.00;;
62574;SDS011;53112;45.602;11.904;2023-04-30T08:43:53;4.38;;;2.80;;
62574;SDS011;53112;45.602;11.904;2023-04-30T08:46:25;4.80;;;3.00;;
62574;SDS011;53112;45.602;11.904;2023-04-30T08:48:51;3.70;;;3.08;;
62574;SDS011;53112;45.602;11.904;2023-04-30T08:51:17;4.82;;;3.20;;
62574;SDS011;53112;45.602;11.904;2023-04-30T08:53:43;4.13;;;2.90;;
62574;SDS011;53112;45.602;11.904;2023-04-30T08:56:10;5.22;;;3.33;;
62574;SDS011;53112;45.602;11.904;2023-04-30T08:58:37;5.15;;;3.10;;
62574;SDS011;53112;45.602;11.904;2023-04-30T09:01:04;4.30;;;3.13;;
62574;SDS011;53112;45.602;11.904;2023-04-30T09:03:33;4.13;;;3.10;;
62574;SDS011;53112;45.602;11.904;2023-04-30T09:05:59;5.28;;;3.08;;
62574;SDS011;53112;45.602;11.904;2023-04-30T09:11:21;4.07;;;3.10;;
62574;SDS011;53112;45.602;11.904;2023-04-30T09:13:57;5.05;;;3.20;;
62574;SDS011;53112;45.602;11.904;2023-04-30T09:16:25;5.78;;;3.35;;
62574;SDS011;53112;45.602;11.904;2023-04-30T09:18:52;5.18;;;3.40;;
62574;SDS011;53112;45.602;11.904;2023-04-30T09:21:31;5.53;;;3.42;;
62574;SDS011;53112;45.602;11.904;2023-04-30T09:24:01;6.18;;;3.40;;
62574;SDS011;53112;45.602;11.904;2023-04-30T09:26:32;6.45;;;3.25;;
62574;SDS011;53112;45.602;11.904;2023-04-30T09:28:59;4.45;;;3.15;;
62574;SDS011;53112;45.602;11.904;2023-04-30T09:31:38;4.18;;;3.20;;
62574;SDS011;53112;45.602;11.904;2023-04-30T09:34:07;5.50;;;3.10;;
62574;SDS011;53112;45.602;11.904;2023-04-30T09:36:33;4.80;;;3.30;;
62574;SDS011;53112;45.602;11.904;2023-04-30T09:39:08;5.05;;;3.25;;
62574;SDS011;53112;45.602;11.904;2023-04-30T09:41:38;4.65;;;3.20;;
62574;SDS011;53112;45.602;11.904;2023-04-30T09:44:04;5.05;;;3.22;;
62574;SDS011;53112;45.602;11.904;2023-04-30T09:46:30;4.28;;;2.92;;
62574;SDS011;53112;45.602;11.904;2023-04-30T09:48:58;5.85;;;3.30;;
62574;SDS011;53112;45.602;11.904;2023-04-30T09:51:25;3.92;;;2.95;;
62574;SDS011;53112;45.602;11.904;2023-04-30T09:53:52;4.53;;;2.90;;
62574;SDS011;53112;45.602;11.904;2023-04-30T09:56:20;4.65;;;3.03;;
62574;SDS011;53112;45.602;11.904;2023-04-30T09:58:49;5.13;;;3.28;;
62574;SDS011;53112;45.602;11.904;2023-04-30T10:01:17;8.57;;;3.33;;
62574;SDS011;53112;45.602;11.904;2023-04-30T10:03:44;4.70;;;2.92;;
62574;SDS011;53112;45.602;11.904;2023-04-30T10:06:13;5.32;;;3.00;;
62574;SDS011;53112;45.602;11.904;2023-04-30T10:08:46;3.72;;;3.03;;
62574;SDS011;53112;45.602;11.904;2023-04-30T10:11:20;5.70;;;3.28;;
62574;SDS011;53112;45.602;11.904;2023-04-30T10:13:59;4.68;;;3.30;;
62574;SDS011;53112;45.602;11.904;2023-04-30T10:19:02;4.78;;;3.20;;
62574;SDS011;53112;45.602;11.904;2023-04-30T10:21:34;4.10;;;3.20;;
62574;SDS011;53112;45.602;11.904;2023-04-30T10:24:04;3.58;;;2.90;;
62574;SDS011;53112;45.602;11.904;2023-04-30T10:26:32;5.40;;;3.03;;
62574;SDS011;53112;45.602;11.904;2023-04-30T10:28:59;5.32;;;2.90;;
62574;SDS011;53112;45.602;11.904;2023-04-30T10:31:25;4.28;;;3.08;;
62574;SDS011;53112;45.602;11.904;2023-04-30T10:34:00;4.88;;;3.45;;
62574;SDS011;53112;45.602;11.904;2023-04-30T10:36:36;4.95;;;3.10;;
62574;SDS011;53112;45.602;11.904;2023-04-30T10:39:06;4.95;;;3.55;;
62574;SDS011;53112;45.602;11.904;2023-04-30T10:41:32;5.60;;;3.40;;
62574;SDS011;53112;45.602;11.904;2023-04-30T10:44:00;6.47;;;3.40;;
62574;SDS011;53112;45.602;11.904;2023-04-30T10:46:26;5.90;;;3.47;;
62574;SDS011;53112;45.602;11.904;2023-04-30T10:48:55;6.15;;;3.40;;
62574;SDS011;53112;45.602;11.904;2023-04-30T10:51:21;5.43;;;3.50;;
62574;SDS011;53112;45.602;11.904;2023-04-30T10:53:50;7.93;;;3.55;;
62574;SDS011;53112;45.602;11.904;2023-04-30T10:56:28;6.13;;;3.30;;
62574;SDS011;53112;45.602;11.904;2023-04-30T10:58:58;4.68;;;3.50;;
62574;SDS011;53112;45.602;11.904;2023-04-30T11:01:28;6.60;;;3.53;;
62574;SDS011;53112;45.602;11.904;2023-04-30T11:04:27;5.45;;;3.58;;
62574;SDS011;53112;45.602;11.904;2023-04-30T11:09:23;7.07;;;3.40;;
62574;SDS011;53112;45.602;11.904;2023-04-30T11:12:03;5.07;;;3.30;;
62574;SDS011;53112;45.602;11.904;2023-04-30T11:14:43;5.40;;;3.20;;
62574;SDS011;53112;45.602;11.904;2023-04-30T11:17:11;5.28;;;3.40;;
62574;SDS011;53112;45.602;11.904;2023-04-30T11:19:49;6.57;;;3.50;;
62574;SDS011;53112;45.602;11.904;2023-04-30T11:22:17;4.53;;;3.28;;
62574;SDS011;53112;45.602;11.904;2023-04-30T11:24:51;6.80;;;3.75;;
62574;SDS011;53112;45.602;11.904;2023-04-30T11:27:26;5.75;;;3.15;;
62574;SDS011;53112;45.602;11.904;2023-04-30T11:29:54;6.82;;;3.72;;
62574;SDS011;53112;45.602;11.904;2023-04-30T11:32:22;6.80;;;3.80;;
62574;SDS011;53112;45.602;11.904;2023-04-30T11:34:50;6.97;;;3.70;;
62574;SDS011;53112;45.602;11.904;2023-04-30T11:37:34;6.75;;;3.55;;
62574;SDS011;53112;45.602;11.904;2023-04-30T11:40:03;6.63;;;3.53;;
62574;SDS011;53112;45.602;11.904;2023-04-30T11:42:30;6.75;;;3.92;;
62574;SDS011;53112;45.602;11.904;2023-04-30T11:45:03;7.35;;;3.92;;
62574;SDS011;53112;45.602;11.904;2023-04-30T11:47:38;6.68;;;4.07;;
62574;SDS011;53112;45.602;11.904;2023-04-30T11:50:11;6.90;;;3.65;;
62574;SDS011;53112;45.602;11.904;2023-04-30T11:52:50;6.15;;;3.80;;
62574;SDS011;53112;45.602;11.904;2023-04-30T11:55:20;7.88;;;4.10;;
62574;SDS011;53112;45.602;11.904;2023-04-30T11:57:51;6.15;;;4.00;;
62574;SDS011;53112;45.602;11.904;2023-04-30T12:00:27;6.60;;;3.80;;
62574;SDS011;53112;45.602;11.904;2023-04-30T12:02:54;7.10;;;4.10;;
62574;SDS011;53112;45.602;11.904;2023-04-30T12:05:21;6.72;;;4.22;;
62574;SDS011;53112;45.602;11.904;2023-04-30T12:08:04;5.53;;;3.75;;
62574;SDS011;53112;45.602;11.904;2023-04-30T12:10:33;6.28;;;4.05;;
62574;SDS011;53112;45.602;11.904;2023-04-30T12:13:00;6.25;;;4.10;;
62574;SDS011;53112;45.602;11.904;2023-04-30T12:15:26;6.85;;;4.30;;
62574;SDS011;53112;45.602;11.904;2023-04-30T12:17:59;5.45;;;3.92;;
62574;SDS011;53112;45.602;11.904;2023-04-30T12:23:00;7.22;;;4.47;;
62574;SDS011;53112;45.602;11.904;2023-04-30T12:25:27;8.18;;;4.05;;
62574;SDS011;53112;45.602;11.904;2023-04-30T12:27:53;6.47;;;4.20;;
62574;SDS011;53112;45.602;11.904;2023-04-30T12:30:23;6.07;;;4.18;;
62574;SDS011;53112;45.602;11.904;2023-04-30T12:35:22;6.63;;;4.05;;
62574;SDS011;53112;45.602;11.904;2023-04-30T12:37:52;7.18;;;3.95;;
62574;SDS011;53112;45.602;11.904;2023-04-30T12:40:25;7.22;;;4.10;;
62574;SDS011;53112;45.602;11.904;2023-04-30T12:42:58;6.65;;;3.83;;
62574;SDS011;53112;45.602;11.904;2023-04-30T12:48:10;6.20;;;3.97;;
62574;SDS011;53112;45.602;11.904;2023-04-30T12:50:37;5.45;;;3.65;;
62574;SDS011;53112;45.602;11.904;2023-04-30T12:53:06;6.63;;;4.18;;
62574;SDS011;53112;45.602;11.904;2023-04-30T12:55:32;6.88;;;3.90;;
62574;SDS011;53112;45.602;11.904;2023-04-30T12:58:02;7.50;;;4.18;;
62574;SDS011;53112;45.602;11.904;2023-04-30T13:00:48;7.78;;;4.15;;
62574;SDS011;53112;45.602;11.904;2023-04-30T13:03:19;6.85;;;4.18;;
62574;SDS011;53112;45.602;11.904;2023-04-30T13:05:49;5.97;;;4.10;;
62574;SDS011;53112;45.602;11.904;2023-04-30T13:08:16;5.57;;;4.00;;
62574;SDS011;53112;45.602;11.904;2023-04-30T13:10:44;6.07;;;3.80;;
62574;SDS011;53112;45.602;11.904;2023-04-30T13:13:14;5.40;;;3.90;;
62574;SDS011;53112;45.602;11.904;2023-04-30T13:15:41;7.22;;;3.88;;
62574;SDS011;53112;45.602;11.904;2023-04-30T13:18:07;7.45;;;3.90;;
62574;SDS011;53112;45.602;11.904;2023-04-30T13:20:36;5.90;;;3.90;;
62574;SDS011;53112;45.602;11.904;2023-04-30T13:23:03;6.28;;;4.00;;
62574;SDS011;53112;45.602;11.904;2023-04-30T13:25:32;6.97;;;3.78;;
62574;SDS011;53112;45.602;11.904;2023-04-30T13:27:59;5.65;;;3.67;;
62574;SDS011;53112;45.602;11.904;2023-04-30T13:30:25;4.78;;;3.40;;
62574;SDS011;53112;45.602;11.904;2023-04-30T13:32:51;4.85;;;3.40;;
62574;SDS011;53112;45.602;11.904;2023-04-30T13:35:17;4.53;;;3.20;;
62574;SDS011;53112;45.602;11.904;2023-04-30T13:37:44;6.35;;;3.60;;
62574;SDS011;53112;45.602;11.904;2023-04-30T13:40:12;5.70;;;3.35;;
62574;SDS011;53112;45.602;11.904;2023-04-30T13:42:40;9.10;;;3.75;;
62574;SDS011;53112;45.602;11.904;2023-04-30T13:45:07;5.90;;;3.97;;
62574;SDS011;53112;45.602;11.904;2023-04-30T13:47:34;5.68;;;3.80;;
62574;SDS011;53112;45.602;11.904;2023-04-30T13:50:01;11.35;;;3.72;;
62574;SDS011;53112;45.602;11.904;2023-04-30T13:52:27;7.28;;;3.58;;
62574;SDS011;53112;45.602;11.904;2023-04-30T13:54:53;5.05;;;3.45;;
62574;SDS011;53112;45.602;11.904;2023-04-30T13:57:19;4.70;;;3.17;;
62574;SDS011;53112;45.602;11.904;2023-04-30T13:59:45;4.28;;;3.25;;
62574;SDS011;53112;45.602;11.904;2023-04-30T14:02:11;6.60;;;3.25;;
62574;SDS011;53112;45.602;11.904;2023-04-30T14:04:37;5.70;;;3.50;;
62574;SDS011;53112;45.602;11.904;2023-04-30T14:07:03;5.07;;;3.33;;
62574;SDS011;53112;45.602;11.904;2023-04-30T14:09:29;10.35;;;3.67;;
62574;SDS011;53112;45.602;11.904;2023-04-30T14:11:55;6.05;;;3.42;;
62574;SDS011;53112;45.602;11.904;2023-04-30T14:14:24;5.90;;;3.45;;
62574;SDS011;53112;45.602;11.904;2023-04-30T14:16:51;5.55;;;3.20;;
62574;SDS011;53112;45.602;11.904;2023-04-30T14:19:17;6.13;;;3.40;;
62574;SDS011;53112;45.602;11.904;2023-04-30T14:21:44;6.70;;;3.50;;
62574;SDS011;53112;45.602;11.904;2023-04-30T14:24:10;5.97;;;3.67;;
62574;SDS011;53112;45.602;11.904;2023-04-30T14:26:37;9.15;;;5.30;;
62574;SDS011;53112;45.602;11.904;2023-04-30T14:29:05;12.90;;;6.55;;
62574;SDS011;53112;45.602;11.904;2023-04-30T14:31:31;11.05;;;6.15;;
62574;SDS011;53112;45.602;11.904;2023-04-30T14:33:57;10.35;;;5.38;;
62574;SDS011;53112;45.602;11.904;2023-04-30T14:36:23;7.68;;;4.78;;
62574;SDS011;53112;45.602;11.904;2023-04-30T14:38:50;7.70;;;4.47;;
62574;SDS011;53112;45.602;11.904;2023-04-30T14:41:15;8.75;;;4.32;;
62574;SDS011;53112;45.602;11.904;2023-04-30T14:43:41;7.85;;;4.30;;
62574;SDS011;53112;45.602;11.904;2023-04-30T14:46:07;6.25;;;3.95;;
62574;SDS011;53112;45.602;11.904;2023-04-30T14:48:33;6.82;;;4.18;;
62574;SDS011;53112;45.602;11.904;2023-04-30T14:51:00;6.13;;;3.70;;
62574;SDS011;53112;45.602;11.904;2023-04-30T14:53:26;7.40;;;4.00;;
62574;SDS011;53112;45.602;11.904;2023-04-30T14:55:55;7.47;;;3.83;;
62574;SDS011;53112;45.602;11.904;2023-04-30T14:58:21;8.35;;;3.60;;
62574;SDS011;53112;45.602;11.904;2023-04-30T15:00:47;6.13;;;3.45;;
62574;SDS011;53112;45.602;11.904;2023-04-30T15:03:13;7.15;;;3.97;;
62574;SDS011;53112;45.602;11.904;2023-04-30T15:05:39;5.80;;;3.60;;
62574;SDS011;53112;45.602;11.904;2023-04-30T15:08:05;6.68;;;3.67;;
62574;SDS011;53112;45.602;11.904;2023-04-30T15:10:31;4.43;;;3.13;;